Time;durP1;ratioP1;P1;durP2;ratioP2;P2;SDS_P1;SDS_P2;PMS_P1;PMS_P2;Temp;Humidity;BMP_temperature;BMP_pressure;BME280_temperature;BME280_humidity;BME280_pressure;Samples;Min_cycle;Max_cycle;Signal;HPM_P1;HPM_P2
2024/02/08 00:01:11;;;;;;;4.77;3.50;;;7.80;99.90;;;7.17;100.00;96604.97;5067264;28;20795;-79
2024/02/08 00:03:38;;;;;;;3.07;2.83;;;7.80;99.90;;;7.27;100.00;96610.59;5061145;28;20973;-80
2024/02/08 00:06:06;;;;;;;4.60;2.97;;;7.90;99.90;;;7.21;100.00;96606.16;5045162;28;20467;-81
2024/02/08 00:08:35;;;;;;;3.03;2.73;;;7.90;99.80;;;7.19;100.00;96609.06;5057132;28;20469;-79
2024/02/08 00:11:03;;;;;;;3.43;2.70;;;7.90;99.00;;;7.22;100.00;96613.16;5064071;28;20481;-80
2024/02/08 00:13:30;;;;;;;5.90;2.77;;;7.90;99.20;;;7.21;100.00;96612.34;5067050;28;20805;-80
2024/02/08 00:15:57;;;;;;;4.90;3.07;;;7.90;98.80;;;7.29;100.00;96608.50;5066617;28;20455;-79
2024/02/08 00:18:26;;;;;;;3.60;3.07;;;7.90;99.30;;;7.27;100.00;96604.41;5045170;28;20468;-78
2024/02/08 00:20:53;;;;;;;4.20;3.10;;;7.90;98.60;;;7.29;100.00;96608.50;5048288;28;20457;-79
2024/02/08 00:23:20;;;;;;;4.50;3.00;;;7.90;98.90;;;7.31;100.00;96598.34;5046026;28;20464;-77
2024/02/08 00:25:50;;;;;;;5.10;2.77;;;8.00;98.80;;;7.41;100.00;96592.41;5066566;28;20804;-79
2024/02/08 00:28:17;;;;;;;4.60;2.80;;;8.00;98.60;;;7.14;100.00;96559.75;5057359;28;20446;-80
2024/02/08 00:30:45;;;;;;;3.83;2.53;;;8.00;98.40;;;7.29;100.00;96599.66;5068714;28;20472;-77
2024/02/08 00:33:12;;;;;;;2.87;2.67;;;8.00;97.90;;;7.34;100.00;96581.75;5047951;28;20437;-78
2024/02/08 00:35:41;;;;;;;3.73;2.53;;;8.00;98.50;;;7.44;100.00;96591.13;5068333;28;20452;-80
2024/02/08 00:38:08;;;;;;;3.30;2.70;;;8.00;98.40;;;7.39;100.00;96596.41;5066289;28;20448;-79
2024/02/08 00:40:36;;;;;;;3.70;2.70;;;8.10;98.20;;;7.19;100.00;96581.38;5040467;28;20450;-80
2024/02/08 00:43:06;;;;;;;2.90;2.57;;;8.00;97.70;;;7.18;100.00;96579.72;5055459;28;20464;-82
2024/02/08 00:45:33;;;;;;;2.67;2.43;;;8.00;98.20;;;7.39;100.00;96585.66;5061477;28;20453;-79
2024/02/08 00:48:04;;;;;;;2.90;2.00;;;8.00;99.00;;;7.36;100.00;96585.06;5061573;28;21089;-80
2024/02/08 00:50:31;;;;;;;2.20;2.00;;;8.00;99.20;;;7.28;100.00;96584.53;5041726;28;20523;-80
2024/02/08 00:53:03;;;;;;;3.37;2.57;;;8.00;98.40;;;7.26;100.00;96587.47;5041278;28;20467;-78
2024/02/08 00:55:30;;;;;;;2.73;2.30;;;8.00;98.80;;;6.75;100.00;96515.28;5044851;28;20461;-79
2024/02/08 00:57:58;;;;;;;3.70;2.80;;;8.00;99.20;;;7.28;100.00;96576.50;5071501;28;20469;-80
2024/02/08 01:00:25;;;;;;;2.67;2.47;;;8.00;99.40;;;7.25;100.00;96567.03;5067501;28;20442;-78
2024/02/08 01:02:52;;;;;;;6.73;2.33;;;7.90;99.80;;;7.33;100.00;96569.38;5050173;28;21021;-80
2024/02/08 01:05:20;;;;;;;6.13;2.50;;;8.00;99.90;;;7.27;100.00;96573.00;5049518;28;20751;-79
2024/02/08 01:07:48;;;;;;;4.50;2.50;;;8.00;99.50;;;7.31;100.00;96582.22;5049604;28;20457;-78
2024/02/08 01:10:17;;;;;;;4.40;2.40;;;8.00;99.50;;;7.33;100.00;96561.31;5048991;28;20464;-79
2024/02/08 01:12:44;;;;;;;4.93;3.00;;;8.00;99.70;;;7.44;100.00;96566.97;5068128;28;20463;-79
2024/02/08 01:15:14;;;;;;;2.77;2.53;;;8.00;99.90;;;7.47;100.00;96571.88;5058579;28;20455;-78
2024/02/08 01:17:41;;;;;;;2.97;2.60;;;8.00;99.40;;;7.41;100.00;96570.91;5043243;28;20454;-78
2024/02/08 01:20:10;;;;;;;5.57;2.43;;;8.10;99.70;;;7.24;100.00;96568.09;5046937;28;20536;-80
2024/02/08 01:22:37;;;;;;;2.57;2.17;;;8.00;99.80;;;7.37;100.00;96570.56;5066980;28;20942;-78
2024/02/08 01:25:05;;;;;;;2.87;1.97;;;8.10;99.50;;;7.47;100.00;96561.13;5064655;28;20938;-78
2024/02/08 01:27:34;;;;;;;4.70;2.90;;;8.10;99.20;;;7.37;100.00;96567.88;5052988;28;20461;-78
2024/02/08 01:30:07;;;;;;;4.53;2.83;;;8.10;99.50;;;7.41;100.00;96572.78;5047729;28;20536;-79
2024/02/08 01:32:34;;;;;;;2.63;2.00;;;8.10;99.90;;;7.34;100.00;96554.91;5057610;28;20449;-79
2024/02/08 01:35:01;;;;;;;2.60;2.40;;;8.10;99.90;;;7.43;100.00;96570.69;5055642;28;20457;-79
2024/02/08 01:37:28;;;;;;;2.50;2.13;;;8.10;99.90;;;7.37;100.00;96557.16;5057960;28;20451;-78
2024/02/08 01:39:56;;;;;;;2.00;1.80;;;8.10;99.90;;;7.47;100.00;96561.94;5065739;28;20463;-79
2024/02/08 01:42:24;;;;;;;2.43;1.97;;;8.10;99.90;;;7.26;100.00;96547.19;5066942;28;20536;-79
2024/02/08 01:45:20;;;;;;;2.70;2.03;;;8.00;99.90;;;7.35;100.00;96556.56;5046806;28;20453;-78
2024/02/08 01:47:47;;;;;;;2.13;1.93;;;8.00;99.90;;;7.29;100.00;96535.97;5060908;28;20463;-78
2024/02/08 01:50:15;;;;;;;3.00;2.30;;;8.10;99.90;;;7.40;100.00;96555.84;5064062;28;20472;-79
2024/02/08 01:52:44;;;;;;;2.20;2.00;;;8.10;99.90;;;7.31;100.00;96558.03;5066058;28;20460;-78
2024/02/08 01:55:16;;;;;;;2.47;2.20;;;8.00;99.90;;;7.33;100.00;96558.63;5047704;28;20926;-79
2024/02/08 01:57:44;;;;;;;4.17;2.47;;;8.00;99.90;;;7.32;100.00;96543.56;5038840;28;20830;-81
2024/02/08 02:00:14;;;;;;;3.00;2.23;;;8.00;99.90;;;7.04;100.00;96502.03;5057707;28;20456;-80
2024/02/08 02:02:44;;;;;;;2.63;2.10;;;8.00;99.90;;;7.22;100.00;96543.31;5063935;28;20475;-79
2024/02/08 02:05:17;;;;;;;2.30;2.10;;;8.00;99.90;;;7.31;100.00;96547.28;5064976;28;20455;-79
2024/02/08 02:07:48;;;;;;;2.23;1.90;;;8.00;99.90;;;7.33;100.00;96553.25;5042716;28;20960;-78
2024/02/08 02:10:17;;;;;;;2.90;1.90;;;8.00;99.90;;;7.45;100.00;96545.25;5067084;28;20472;-79
2024/02/08 02:12:48;;;;;;;2.90;2.30;;;8.10;99.90;;;7.22;100.00;96494.97;5063086;28;20821;-79
2024/02/08 02:15:18;;;;;;;2.90;1.80;;;8.10;99.90;;;7.51;100.00;96546.19;5060927;28;20464;-79
2024/02/08 02:17:47;;;;;;;2.63;2.43;;;8.20;99.90;;;7.03;100.00;96484.28;5063071;28;20456;-78
2024/02/08 02:20:18;;;;;;;2.43;2.03;;;8.10;99.90;;;7.53;100.00;96551.31;5056644;28;20452;-80
2024/02/08 02:22:48;;;;;;;3.10;2.00;;;8.10;99.90;;;7.48;100.00;96552.00;5066335;28;20547;-81
2024/02/08 02:25:16;;;;;;;6.80;2.30;;;8.00;99.90;;;7.53;100.00;96545.94;5041351;28;21163;-81
2024/02/08 02:27:44;;;;;;;3.33;1.90;;;8.10;99.90;;;7.51;100.00;96554.25;5062581;28;20674;-80
2024/02/08 02:30:15;;;;;;;3.00;2.10;;;8.10;99.90;;;7.51;100.00;96546.19;5059965;28;20472;-81
2024/02/08 02:32:46;;;;;;;2.53;2.33;;;8.10;99.90;;;7.57;100.00;96549.78;5041877;28;20452;-79
2024/02/08 02:35:16;;;;;;;2.70;2.17;;;8.10;99.90;;;7.55;100.00;96546.50;5062738;28;20457;-78
2024/02/08 02:37:44;;;;;;;1.90;1.73;;;8.10;99.90;;;7.52;100.00;96537.06;5046132;28;20460;-79
2024/02/08 02:40:23;;;;;;;1.93;1.83;;;8.10;99.90;;;7.51;100.00;96543.50;5050636;28;20476;-80
2024/02/08 02:42:51;;;;;;;3.87;2.00;;;8.10;99.90;;;7.54;100.00;96528.75;5070007;28;20452;-79
2024/02/08 02:45:21;;;;;;;4.20;2.20;;;8.10;99.90;;;7.59;100.00;96537.75;5042888;28;20457;-78
2024/02/08 02:47:53;;;;;;;3.03;2.00;;;8.10;99.90;;;7.52;100.00;96531.69;5043516;28;20564;-80
2024/02/08 02:50:21;;;;;;;4.13;2.30;;;8.10;99.90;;;7.47;100.00;96540.44;5040902;28;20464;-81
2024/02/08 02:52:49;;;;;;;2.40;2.20;;;8.10;99.90;;;7.48;100.00;96525.97;5071834;28;20442;-79
2024/02/08 02:55:19;;;;;;;1.97;1.80;;;8.20;99.90;;;7.45;100.00;96531.81;5064702;28;20460;-79
2024/02/08 02:57:47;;;;;;;1.80;1.70;;;8.10;99.90;;;7.43;100.00;96536.59;5039038;28;20935;-80
2024/02/08 03:00:22;;;;;;;3.23;2.00;;;8.10;99.90;;;7.43;100.00;96533.06;5060494;28;21152;-80
2024/02/08 03:02:50;;;;;;;1.87;1.73;;;8.10;99.90;;;7.38;100.00;96539.13;5061936;28;20446;-82
2024/02/08 03:05:20;;;;;;;1.97;1.83;;;8.00;99.90;;;7.54;100.00;96544.88;5061103;28;20557;-79
2024/02/08 03:07:49;;;;;;;2.80;1.60;;;8.10;99.90;;;7.29;100.00;96527.09;5039163;28;20485;-78
2024/02/08 03:10:20;;;;;;;2.23;2.03;;;8.00;99.90;;;7.37;100.00;96535.66;5045154;28;20468;-79
2024/02/08 03:12:49;;;;;;;1.90;1.70;;;8.10;99.90;;;7.41;100.00;96535.19;5042591;28;20464;-80
2024/02/08 03:15:17;;;;;;;2.50;1.50;;;8.10;99.90;;;7.45;100.00;96531.81;5044800;28;21180;-79
2024/02/08 03:17:45;;;;;;;1.93;1.60;;;8.10;99.90;;;7.40;100.00;96537.03;5058537;28;20458;-80
2024/02/08 03:20:23;;;;;;;3.80;1.70;;;8.00;99.90;;;7.57;100.00;96526.44;5059361;28;20461;-77
2024/02/08 03:22:50;;;;;;;2.00;1.80;;;8.10;99.90;;;7.59;100.00;96527.00;5066104;28;20487;-79
2024/02/08 03:25:21;;;;;;;1.90;1.70;;;8.10;99.90;;;7.61;100.00;96532.16;5043085;28;20458;-80
2024/02/08 03:27:51;;;;;;;1.60;1.33;;;8.10;99.90;;;7.63;100.00;96528.19;5062470;28;20482;-79
2024/02/08 03:30:20;;;;;;;2.10;1.47;;;8.20;99.90;;;7.55;100.00;96525.00;5041885;28;20839;-78
2024/02/08 03:32:52;;;;;;;1.67;1.30;;;8.20;99.90;;;7.52;100.00;96531.69;5058272;28;20475;-79
2024/02/08 03:35:24;;;;;;;1.37;1.27;;;8.10;99.90;;;7.47;100.00;96510.06;5055593;28;20461;-79
2024/02/08 03:37:54;;;;;;;2.10;1.50;;;8.20;99.90;;;7.56;100.00;96521.28;5064061;28;20449;-78
2024/02/08 03:40:25;;;;;;;1.97;1.30;;;8.20;99.90;;;7.55;100.00;96514.25;5040067;28;20542;-80
2024/02/08 03:42:56;;;;;;;2.83;2.07;;;8.20;99.90;;;7.62;100.00;96513.09;5065829;28;20460;-79
2024/02/08 03:45:27;;;;;;;2.40;2.20;;;8.30;99.90;;;7.57;100.00;96513.00;5039484;28;20859;-79
2024/02/08 03:47:58;;;;;;;1.50;1.40;;;8.30;99.90;;;7.63;100.00;96517.41;5065561;28;21014;-79
2024/02/08 03:50:25;;;;;;;2.73;1.00;;;8.30;99.90;;;7.70;100.00;96517.31;5064486;28;20480;-78
2024/02/08 03:52:53;;;;;;;1.57;1.40;;;8.30;99.90;;;7.71;100.00;96521.63;5064040;28;21184;-76
2024/02/08 03:55:26;;;;;;;1.30;1.20;;;8.30;99.90;;;7.65;100.00;96520.69;5057009;28;20469;-79
2024/02/08 03:57:56;;;;;;;1.40;1.30;;;8.40;99.90;;;7.29;100.00;96468.00;5052095;28;20444;-81
2024/02/08 04:00:28;;;;;;;1.27;1.03;;;8.40;99.90;;;7.85;100.00;96533.00;5049432;28;20573;-78
2024/02/08 04:02:58;;;;;;;2.03;1.53;;;8.40;99.90;;;7.60;100.00;96485.63;5068130;28;20453;-77
2024/02/08 04:05:36;;;;;;;1.40;0.90;;;8.40;99.90;;;7.89;100.00;96520.69;5037905;28;20450;-77
2024/02/08 04:08:22;;;;;;;1.50;1.23;;;8.40;99.90;;;7.92;100.00;96514.84;5040469;28;20476;-81
2024/02/08 04:55:00;;;;;;;1.00;0.87;;;8.50;99.90;;;8.06;100.00;96511.91;5062219;28;20501;-78
2024/02/08 04:57:27;;;;;;;1.23;1.13;;;8.60;99.90;;;8.00;100.00;96504.81;5067067;28;20484;-81
2024/02/08 04:59:59;;;;;;;1.73;1.00;;;8.60;99.90;;;8.06;100.00;96509.22;5056716;28;20472;-81
2024/02/08 05:02:29;;;;;;;2.63;1.00;;;8.60;99.90;;;8.11;100.00;96517.38;5048413;28;20463;-78
2024/02/08 05:04:56;;;;;;;1.80;1.07;;;8.60;99.90;;;7.96;100.00;96506.31;5056868;28;20467;-78
2024/02/08 05:07:26;;;;;;;1.50;1.40;;;8.60;99.90;;;7.97;100.00;96505.28;5054757;28;21169;-78
2024/02/08 05:09:54;;;;;;;1.00;1.00;;;8.60;99.90;;;8.00;100.00;96494.84;5041653;28;20471;-78
2024/02/08 05:12:21;;;;;;;1.33;1.00;;;8.60;99.90;;;8.11;100.00;96509.31;5065938;28;21025;-78
2024/02/08 05:14:48;;;;;;;1.57;1.13;;;8.60;99.90;;;7.92;100.00;96501.41;5055297;28;20530;-79
2024/02/08 05:17:17;;;;;;;1.13;0.70;;;8.60;99.90;;;7.92;100.00;96504.09;5044705;28;20472;-78
2024/02/08 05:19:44;;;;;;;0.93;0.90;;;8.60;99.90;;;8.01;100.00;96514.50;5061400;28;20457;-77
2024/02/08 05:22:13;;;;;;;1.30;0.90;;;8.60;99.90;;;7.93;100.00;96513.78;5061157;28;20543;-82
2024/02/08 05:24:40;;;;;;;2.00;1.30;;;8.60;99.90;;;7.98;100.00;96506.91;5040620;28;20441;-77
2024/02/08 05:27:07;;;;;;;1.53;1.17;;;8.60;99.90;;;8.05;100.00;96513.81;5046322;28;20503;-79
2024/02/08 05:29:39;;;;;;;1.87;1.30;;;8.60;99.90;;;7.80;100.00;96511.34;5040425;28;20458;-77
2024/02/08 05:32:06;;;;;;;4.83;1.40;;;8.50;99.90;;;7.58;100.00;96470.78;5061600;28;20469;-83
2024/02/08 05:34:36;;;;;;;1.80;1.40;;;8.50;99.90;;;7.64;100.00;96459.91;5063232;28;20790;-79
2024/02/08 05:37:04;;;;;;;1.43;1.33;;;8.50;99.90;;;7.57;100.00;96456.56;5073481;28;20442;-80
2024/02/08 05:39:31;;;;;;;1.50;1.37;;;8.50;99.90;;;7.72;100.00;96492.88;5070151;28;20447;-78
2024/02/08 05:41:59;;;;;;;1.70;1.40;;;8.50;99.90;;;7.49;100.00;96446.97;5044297;28;20465;-73
2024/02/08 05:44:29;;;;;;;1.67;1.50;;;8.50;99.90;;;7.62;100.00;96456.66;5036379;28;20452;-74
2024/02/08 05:46:56;;;;;;;1.50;1.40;;;8.60;99.90;;;8.07;100.00;96510.84;5055045;28;20822;-72
2024/02/08 05:49:25;;;;;;;2.47;1.33;;;8.70;99.90;;;8.15;100.00;96506.97;5036625;28;20983;-74
2024/02/08 05:51:56;;;;;;;2.07;1.30;;;8.70;99.90;;;7.88;100.00;96461.75;5058329;28;20469;-76
2024/02/08 05:54:31;;;;;;;1.53;1.20;;;8.70;99.90;;;8.00;100.00;96502.91;5057647;28;20450;-75
2024/02/08 05:57:02;;;;;;;1.60;1.50;;;8.70;99.90;;;8.09;100.00;96497.97;5063850;28;20884;-75
2024/02/08 05:59:29;;;;;;;1.73;1.63;;;8.70;99.90;;;8.11;100.00;96498.56;5062088;28;20449;-73
2024/02/08 06:01:58;;;;;;;2.20;1.80;;;8.70;99.90;;;8.23;100.00;96503.94;5043985;28;20448;-80
2024/02/08 06:04:34;;;;;;;1.30;1.20;;;8.70;99.90;;;8.12;100.00;96492.16;5037806;28;20473;-74
2024/02/08 06:07:06;;;;;;;1.70;1.50;;;8.70;99.90;;;8.08;100.00;96497.19;5047093;28;20444;-75
2024/02/08 06:09:47;;;;;;;1.47;1.37;;;8.70;99.90;;;8.12;100.00;96502.91;5044175;28;20975;-82
2024/02/08 06:12:23;;;;;;;1.50;1.40;;;8.70;99.90;;;7.76;100.00;96440.28;5040437;28;20486;-76
2024/02/08 06:14:58;;;;;;;1.50;1.40;;;8.70;99.90;;;8.23;100.00;96502.06;5037744;28;20452;-82
2024/02/08 06:17:32;;;;;;;1.60;1.50;;;8.80;99.90;;;8.29;100.00;96502.19;5044742;28;20565;-78
2024/02/08 06:20:00;;;;;;;1.77;1.33;;;8.80;99.90;;;8.22;100.00;96505.00;5060525;28;21519;-76
2024/02/08 06:22:29;;;;;;;1.50;1.40;;;8.80;99.90;;;8.31;100.00;96506.25;5059263;28;20456;-78
2024/02/08 06:25:08;;;;;;;2.67;1.07;;;8.80;99.90;;;8.23;100.00;96504.75;5040303;28;20444;-80
2024/02/08 06:27:37;;;;;;;1.67;1.00;;;8.80;99.90;;;8.05;100.00;96494.97;5066146;28;20481;-81
2024/02/08 06:30:09;;;;;;;1.20;1.10;;;8.70;99.90;;;8.25;100.00;96501.81;5052971;28;20474;-76
2024/02/08 06:32:44;;;;;;;1.50;1.40;;;8.80;99.90;;;8.27;100.00;96502.41;5063053;28;20833;-78
2024/02/08 06:35:19;;;;;;;3.80;1.50;;;8.80;99.90;;;8.12;100.00;96494.84;5051115;28;20948;-73
2024/02/08 06:37:56;;;;;;;2.70;1.30;;;8.80;99.90;;;8.22;100.00;96496.91;5058681;28;21075;-77
2024/02/08 06:40:37;;;;;;;2.07;1.33;;;8.80;99.90;;;8.22;100.00;96491.53;5059661;28;20927;-77
2024/02/08 06:43:26;;;;;;;2.00;1.20;;;8.80;99.90;;;8.12;100.00;96484.09;5055491;28;20461;-76
2024/02/08 06:46:09;;;;;;;1.90;1.30;;;8.80;99.90;;;8.05;100.00;96483.38;5037153;28;20489;-76
2024/02/08 06:48:48;;;;;;;1.30;1.23;;;8.80;99.90;;;8.14;100.00;96495.41;5057071;28;20457;-80
2024/02/08 07:38:07;;;;;;;1.33;1.23;;;9.10;99.90;;;7.89;100.00;96450.78;5060693;28;20461;-79
2024/02/08 07:40:35;;;;;;;1.37;1.10;;;9.00;99.90;;;8.36;100.00;96514.44;5042559;28;20489;-78
2024/02/08 07:43:19;;;;;;;1.20;1.10;;;9.00;99.90;;;8.37;100.00;96512.56;5065881;28;20449;-75
2024/02/08 07:46:04;;;;;;;5.30;1.30;;;9.00;99.90;;;8.51;100.00;96515.84;5061768;28;20553;-81
2024/02/08 07:48:43;;;;;;;1.90;1.23;;;9.10;99.90;;;8.30;100.00;96466.13;5060619;28;20461;-80
2024/02/08 07:51:15;;;;;;;1.27;1.17;;;9.10;99.90;;;8.56;100.00;96507.84;5066290;28;20809;-80
2024/02/08 07:53:53;;;;;;;1.03;0.97;;;9.20;99.90;;;8.55;100.00;96518.84;5066085;28;20456;-79
2024/02/08 07:56:29;;;;;;;1.20;1.10;;;9.20;99.90;;;8.61;100.00;96507.13;5066314;28;20539;-81
2024/02/08 07:59:03;;;;;;;1.40;1.30;;;9.20;99.90;;;8.73;100.00;96505.22;5062851;28;23776;-80
2024/02/08 08:01:32;;;;;;;1.77;1.00;;;9.30;99.90;;;8.72;100.00;96505.44;5047972;28;20537;-80
2024/02/08 08:04:00;;;;;;;2.00;0.90;;;9.30;99.90;;;8.75;100.00;96503.09;5057993;28;20899;-77
2024/02/08 08:06:34;;;;;;;1.33;0.97;;;9.40;99.90;;;8.81;100.00;96503.19;5062213;28;20522;-80
2024/02/08 08:09:18;;;;;;;1.40;1.03;;;9.40;99.90;;;8.66;100.00;96488.38;5059565;28;20453;-79
2024/02/08 08:11:47;;;;;;;0.87;0.80;;;9.40;99.90;;;8.90;100.00;96502.56;5065098;28;20538;-80
2024/02/08 08:17:16;;;;;;;1.03;1.00;;;9.40;99.90;;;8.98;100.00;96498.66;5042747;28;20458;-72
2024/02/08 08:19:45;;;;;;;1.13;1.03;;;9.50;99.90;;;8.85;100.00;96504.31;5065525;28;20454;-79
2024/02/08 08:25:11;;;;;;;4.40;0.80;;;9.50;99.90;;;8.79;100.00;96503.41;5061814;28;20457;-77
2024/02/08 08:27:47;;;;;;;1.03;0.93;;;9.40;99.90;;;8.81;100.00;96506.72;5036315;28;20461;-76
2024/02/08 08:30:27;;;;;;;1.20;0.83;;;9.40;99.90;;;8.86;100.00;96481.72;5060241;28;20663;-78
2024/02/08 08:33:07;;;;;;;1.23;1.00;;;9.50;99.90;;;8.81;100.00;96503.19;5050168;28;20476;-76
2024/02/08 08:35:53;;;;;;;1.40;1.30;;;9.40;99.90;;;8.95;100.00;96503.69;5053128;28;20441;-76
2024/02/08 08:38:30;;;;;;;2.33;1.17;;;9.50;99.90;;;8.75;100.00;96495.03;5052510;28;20602;-76
2024/02/08 08:41:00;;;;;;;0.90;0.90;;;9.50;99.90;;;8.94;100.00;96486.72;5046909;28;20509;-76
2024/02/08 08:43:31;;;;;;;0.93;0.93;;;9.60;99.90;;;9.18;100.00;96492.00;5044538;28;20462;-76
2024/02/08 08:46:00;;;;;;;0.97;0.80;;;9.70;99.90;;;8.78;100.00;96462.22;5044477;28;20446;-75
2024/02/08 08:48:31;;;;;;;1.87;0.90;;;9.70;99.90;;;9.33;100.00;96492.25;5065237;28;20451;-75
2024/02/08 08:51:10;;;;;;;2.53;0.93;;;9.80;99.90;;;9.37;100.00;96494.44;5059510;28;20460;-77
2024/02/08 08:53:43;;;;;;;1.30;0.90;;;9.90;99.70;;;9.29;100.00;96492.97;5040503;28;20548;-78
2024/02/08 08:56:12;;;;;;;1.27;1.17;;;9.90;98.70;;;9.50;100.00;96504.91;5062959;28;20447;-78
2024/02/08 08:58:40;;;;;;;1.43;0.83;;;10.00;98.40;;;9.46;100.00;96499.19;5061304;28;20457;-80
2024/02/08 09:01:15;;;;;;;1.83;0.70;;;10.00;97.50;;;9.41;100.00;96500.97;5061167;28;20463;-79
2024/02/08 09:03:43;;;;;;;1.57;0.70;;;10.00;97.70;;;9.26;100.00;96499.66;5056657;28;20447;-79
2024/02/08 09:06:13;;;;;;;1.17;0.70;;;10.00;97.60;;;9.16;100.00;96503.00;5062791;28;20546;-79
2024/02/08 09:08:45;;;;;;;0.80;0.70;;;9.90;98.20;;;9.29;100.00;96503.75;5041463;28;20872;-79
2024/02/08 09:11:14;;;;;;;1.53;0.60;;;9.80;99.40;;;9.45;100.00;96507.50;5063478;28;20446;-76
2024/02/08 09:13:43;;;;;;;1.73;0.70;;;9.90;98.90;;;9.32;100.00;96498.66;5065775;28;20451;-80
2024/02/08 09:16:36;;;;;;;0.60;0.60;;;9.90;98.60;;;9.57;100.00;96500.16;5057471;28;20458;-78
2024/02/08 09:19:12;;;;;;;1.00;0.73;;;10.10;98.00;;;9.70;100.00;96501.69;5056865;28;20476;-78
2024/02/08 09:21:39;;;;;;;1.20;0.80;;;10.20;97.30;;;9.35;100.00;96497.38;5066163;28;20474;-78
2024/02/08 09:24:17;;;;;;;0.87;0.80;;;10.10;97.00;;;9.59;100.00;96500.72;5059460;28;20459;-78
2024/02/08 09:26:51;;;;;;;0.90;0.90;;;10.10;98.00;;;9.58;100.00;96496.38;5069959;28;20464;-80
2024/02/08 09:29:24;;;;;;;0.90;0.80;;;10.10;98.60;;;9.60;100.00;96505.03;5042117;28;20453;-80
2024/02/08 09:31:57;;;;;;;3.07;0.90;;;10.20;98.30;;;9.74;100.00;96500.16;5044214;28;20542;-78
2024/02/08 09:34:36;;;;;;;0.70;0.67;;;10.20;99.20;;;9.84;100.00;96491.38;5063236;28;20492;-80
2024/02/08 09:37:06;;;;;;;1.00;0.73;;;10.30;99.30;;;9.82;100.00;96501.59;5060406;28;20536;-78
2024/02/08 09:42:15;;;;;;;2.13;0.80;;;10.30;98.20;;;9.98;100.00;96491.03;5063476;28;20459;-79
2024/02/08 09:44:49;;;;;;;0.97;0.60;;;10.40;98.30;;;10.03;100.00;96496.47;5045835;28;20976;-79
2024/02/08 09:47:31;;;;;;;1.03;0.73;;;10.50;96.80;;;9.86;100.00;96491.94;5056689;28;20527;-80
2024/02/08 09:50:01;;;;;;;0.97;0.83;;;10.50;96.80;;;9.95;100.00;96505.81;5058393;28;20492;-78
2024/02/08 09:52:31;;;;;;;1.87;1.10;;;10.50;97.80;;;10.09;100.00;96494.66;5062388;28;20564;-78
2024/02/08 09:55:08;;;;;;;2.40;1.83;;;10.50;97.50;;;9.83;100.00;96497.84;5058409;28;20458;-77
2024/02/08 09:57:45;;;;;;;1.00;0.90;;;10.50;96.80;;;9.67;100.00;96487.91;5059080;28;20439;-80
2024/02/08 10:03:07;;;;;;;0.70;0.70;;;10.30;99.20;;;9.82;100.00;96480.03;5043045;28;21020;-72
2024/02/08 10:05:52;;;;;;;1.97;0.60;;;10.40;98.80;;;9.85;100.00;96476.81;5083371;28;20911;-77
2024/02/08 10:08:28;;;;;;;0.97;0.73;;;10.50;98.50;;;10.06;100.00;96482.50;5072628;28;20459;-75
2024/02/08 10:11:11;;;;;;;0.83;0.77;;;10.60;97.70;;;10.25;100.00;96482.22;5050473;28;20457;-72
2024/02/08 10:13:53;;;;;;;0.70;0.70;;;10.80;96.90;;;10.44;100.00;96470.03;5064501;28;20993;-76
2024/02/08 10:16:29;;;;;;;0.70;0.67;;;10.90;96.70;;;10.92;97.52;96480.25;5046035;28;21151;-77
2024/02/08 10:19:02;;;;;;;1.50;0.50;;;11.20;95.70;;;11.02;95.37;96491.19;5055784;28;20546;-77
2024/02/08 10:21:29;;;;;;;1.67;0.70;;;11.40;94.10;;;11.19;94.89;96474.81;5045924;28;20476;-77
2024/02/08 10:24:11;;;;;;;1.10;0.70;;;11.70;93.60;;;11.50;92.74;96474.28;5050925;28;20471;-74
2024/02/08 10:26:45;;;;;;;1.13;1.00;;;11.90;93.20;;;11.37;93.58;96466.59;5064067;28;20757;-77
2024/02/08 10:29:14;;;;;;;2.10;1.20;;;11.90;92.90;;;11.70;91.64;96457.38;5050040;28;20452;-76
2024/02/08 10:31:42;;;;;;;0.80;0.80;;;12.10;92.50;;;11.73;91.10;96461.41;5061220;28;21051;-77
2024/02/08 10:34:23;;;;;;;0.80;0.60;;;12.20;92.00;;;11.74;91.16;96444.94;5049718;28;20574;-78
2024/02/08 10:36:50;;;;;;;0.70;0.60;;;12.30;91.80;;;11.70;91.49;96451.13;5048919;28;20828;-74
2024/02/08 10:39:25;;;;;;;0.70;0.70;;;12.10;91.70;;;11.34;92.70;96451.69;5064177;28;20850;-78
2024/02/08 10:41:58;;;;;;;0.70;0.50;;;12.10;91.80;;;11.39;92.25;96461.75;5043182;28;20439;-77
2024/02/08 10:44:29;;;;;;;0.90;0.60;;;11.90;92.00;;;11.27;92.25;96454.63;5063698;28;20446;-78
2024/02/08 10:47:06;;;;;;;0.47;0.43;;;11.80;92.00;;;11.29;92.91;96448.97;5042330;28;20447;-77
2024/02/08 10:49:42;;;;;;;1.20;1.10;;;11.80;92.40;;;11.16;94.11;96450.22;5068634;28;20446;-75
2024/02/08 10:52:15;;;;;;;1.30;0.90;;;11.70;92.80;;;11.27;92.73;96443.81;5066120;28;20571;-78
2024/02/08 10:54:51;;;;;;;0.83;0.63;;;11.80;92.40;;;11.17;94.01;96443.75;5043317;28;21204;-78
2024/02/08 11:00:49;;;;;;;0.70;0.60;;;11.80;92.70;;;11.37;92.14;96426.84;5047769;28;20465;-79
2024/02/08 11:03:00;;;;;;;0.90;0.77;;;11.80;92.40;;;11.38;92.29;96427.66;5062342;28;20466;-76
2024/02/08 11:05:47;;;;;;;1.83;0.77;;;11.80;92.20;;;11.22;93.03;96418.59;5058820;28;20509;-78
2024/02/08 11:08:24;;;;;;;2.73;0.40;;;11.80;92.40;;;11.15;92.88;96405.34;5042167;28;20946;-77
2024/02/08 11:10:58;;;;;;;2.10;0.60;;;11.80;92.20;;;11.02;93.45;96410.09;5062078;28;20569;-75
2024/02/08 11:13:30;;;;;;;0.60;0.60;;;11.60;92.10;;;11.12;93.20;96412.06;5060004;28;20468;-79
2024/02/08 11:16:19;;;;;;;0.93;0.60;;;11.70;92.50;;;11.05;93.86;96412.28;5068803;28;21044;-78
2024/02/08 11:18:47;;;;;;;1.47;0.90;;;11.70;92.60;;;11.14;93.24;96406.38;5045940;28;20448;-76
2024/02/08 11:21:24;;;;;;;1.13;0.67;;;11.70;92.50;;;11.16;93.21;96396.16;5063327;28;20455;-78
2024/02/08 11:23:57;;;;;;;0.70;0.57;;;11.70;92.40;;;11.28;93.89;96387.84;5061967;28;20499;-77
2024/02/08 11:26:26;;;;;;;0.90;0.60;;;11.70;92.90;;;11.33;93.57;96387.88;5065564;28;20961;-78
2024/02/08 11:29:04;;;;;;;1.13;0.80;;;11.70;92.90;;;11.34;93.67;96378.69;5064712;28;20501;-76
2024/02/08 11:31:41;;;;;;;0.93;0.43;;;11.80;92.90;;;11.45;92.90;96376.88;5036459;28;20516;-76
2024/02/08 11:34:15;;;;;;;1.43;0.80;;;11.90;92.90;;;11.28;93.39;96377.03;5061004;28;20479;-78
2024/02/08 11:36:43;;;;;;;1.30;0.70;;;11.90;92.60;;;11.39;93.84;96377.91;5059590;28;20919;-76
2024/02/08 11:39:31;;;;;;;0.90;0.60;;;11.90;92.90;;;11.36;94.43;96365.72;5065541;28;20454;-79
2024/02/08 11:42:00;;;;;;;0.80;0.53;;;11.90;92.80;;;11.56;93.32;96373.16;5062709;28;20493;-72
2024/02/08 11:44:29;;;;;;;3.43;0.80;;;12.00;92.90;;;11.36;93.79;96365.72;5042454;28;20471;-75
2024/02/08 11:47:01;;;;;;;1.40;1.30;;;11.90;92.80;;;11.18;95.91;96369.69;5060845;28;20562;-77
2024/02/08 11:49:35;;;;;;;0.70;0.67;;;11.70;93.70;;;11.46;94.31;96365.00;5063235;28;20537;-76
2024/02/08 11:52:10;;;;;;;0.80;0.70;;;11.80;93.40;;;11.40;94.22;96366.03;5059204;28;20551;-78
2024/02/08 11:54:39;;;;;;;1.27;0.90;;;11.90;93.20;;;11.34;93.68;96352.47;5063990;28;20519;-80
2024/02/08 11:57:11;;;;;;;0.70;0.60;;;11.90;93.10;;;11.29;94.74;96363.25;5048011;28;20459;-78
2024/02/08 11:59:39;;;;;;;0.83;0.50;;;11.80;93.20;;;10.93;95.90;96351.41;5061023;28;20461;-79
2024/02/08 12:02:08;;;;;;;1.10;0.57;;;11.60;93.40;;;10.86;96.54;96357.81;5063659;28;20972;-73
2024/02/08 12:04:36;;;;;;;1.07;0.90;;;11.50;93.70;;;10.91;97.22;96349.75;5065060;28;20490;-79
2024/02/08 12:07:07;;;;;;;1.10;0.87;;;11.50;94.40;;;11.16;95.98;96339.41;5067731;28;20447;-78
2024/02/08 12:09:35;;;;;;;1.70;1.60;;;11.60;94.30;;;11.45;93.98;96341.72;5037220;28;20460;-75
2024/02/08 12:12:04;;;;;;;1.37;0.83;;;11.80;93.80;;;11.30;94.54;96345.16;5057614;28;20466;-80
2024/02/08 12:14:31;;;;;;;1.40;0.70;;;11.80;93.30;;;11.04;94.59;96299.84;5063465;28;20455;-75
2024/02/08 12:16:59;;;;;;;1.23;0.70;;;11.80;93.20;;;11.08;96.40;96327.19;5065479;28;20467;-74
2024/02/08 12:19:28;;;;;;;1.67;0.90;;;11.70;93.90;;;11.18;95.30;96337.25;5075233;28;20461;-77
2024/02/08 12:21:57;;;;;;;1.10;1.00;;;11.70;93.50;;;11.23;94.99;96322.94;5078520;28;20468;-73
2024/02/08 12:24:31;;;;;;;1.83;0.90;;;11.80;93.60;;;11.27;95.46;96322.13;5085831;28;20463;-73
2024/02/08 12:27:05;;;;;;;1.03;0.50;;;11.80;93.60;;;11.22;95.38;96324.81;5080852;28;20448;-75